Time;durP1;ratioP1;P1;durP2;ratioP2;P2;SDS_P1;SDS_P2;PMS_P1;PMS_P2;Temp;Humidity;BMP_temperature;BMP_pressure;BME280_temperature;BME280_humidity;BME280_pressure;Samples;Min_cycle;Max_cycle;Signal;HPM_P1;HPM_P2
2022/06/12 17:37:39;;;;;;;4.40;2.80;;;;;;;;;;3968266;23;23945;-76
2022/06/12 17:40:09;;;;;;;10.50;3.27;;;;;;;;;;4927246;29;20454;-74
2022/06/12 17:45:32;;;;;;;8.00;2.87;;;;;;;;;;4916455;29;20802;-74
2022/06/12 17:48:00;;;;;;;6.80;2.63;;;;;;;;;;4916545;29;20455;-76
2022/06/12 17:50:27;;;;;;;5.73;3.30;;;;;;;;;;4916413;29;20498;-76
2022/06/12 17:52:54;;;;;;;4.13;2.83;;;;;;;;;;4916410;29;20936;-75
2022/06/12 17:55:23;;;;;;;4.50;2.60;;;;;;;;;;4916384;29;20460;-75
2022/06/12 17:57:50;;;;;;;9.33;3.40;;;;;;;;;;4920011;29;20451;-76
2022/06/12 18:00:19;;;;;;;5.67;2.77;;;;;;;;;;4922489;29;20435;-75
2022/06/12 18:02:47;;;;;;;3.73;1.90;;;;;;;;;;4918202;29;20535;-75
2022/06/12 18:05:14;;;;;;;6.50;2.70;;;;;;;;;;4914368;29;20522;-76
2022/06/12 18:07:42;;;;;;;2.73;2.33;;;;;;;;;;4913178;29;20456;-75
2022/06/12 18:10:09;;;;;;;5.87;2.60;;;;;;;;;;4913124;29;20456;-76
2022/06/12 18:12:38;;;;;;;7.23;2.70;;;;;;;;;;4913667;29;20448;-75
2022/06/12 18:20:28;;;;;;;5.20;2.70;;;;;;;;;;4921564;29;20447;-74
2022/06/12 18:22:55;;;;;;;7.23;3.00;;;;;;;;;;4918272;29;20439;-74
2022/06/12 18:25:22;;;;;;;4.90;2.70;;;;;;;;;;4913928;29;20502;-74
2022/06/12 18:27:51;;;;;;;5.90;3.00;;;;;;;;;;4912856;29;20829;-75
2022/06/12 18:30:18;;;;;;;5.53;3.00;;;;;;;;;;4912523;29;20805;-75
2022/06/12 18:32:45;;;;;;;6.23;2.90;;;;;;;;;;4913107;29;20817;-75
2022/06/12 18:35:12;;;;;;;8.90;2.80;;;;;;;;;;4912035;29;20447;-75
2022/06/12 18:37:39;;;;;;;8.63;3.00;;;;;;;;;;4923684;29;20462;-74
2022/06/12 18:40:08;;;;;;;10.20;3.13;;;;;;;;;;4939296;29;20810;-75
2022/06/12 18:42:35;;;;;;;6.20;2.40;;;;;;;;;;4933191;29;20443;-75
2022/06/12 18:45:04;;;;;;;4.63;2.80;;;;;;;;;;4934212;29;20478;-75
2022/06/12 18:47:32;;;;;;;6.80;3.20;;;;;;;;;;4933315;29;20454;-75
2022/06/12 18:49:59;;;;;;;6.90;3.00;;;;;;;;;;4934815;29;20449;-76
2022/06/12 18:52:26;;;;;;;5.53;3.37;;;;;;;;;;4934470;29;20939;-76
2022/06/12 18:54:54;;;;;;;4.73;2.90;;;;;;;;;;4954636;28;20462;-75
2022/06/12 18:57:21;;;;;;;7.30;3.17;;;;;;;;;;4954881;28;20487;-74
2022/06/12 18:59:49;;;;;;;7.13;3.23;;;;;;;;;;4943965;28;20860;-73
2022/06/12 19:02:17;;;;;;;3.67;2.60;;;;;;;;;;4940478;29;20473;-74
2022/06/12 19:04:44;;;;;;;5.33;2.90;;;;;;;;;;4935774;29;20940;-72
2022/06/12 19:07:12;;;;;;;5.07;3.00;;;;;;;;;;4934803;29;20465;-75
2022/06/12 19:09:40;;;;;;;6.17;3.57;;;;;;;;;;4934663;29;20447;-74
2022/06/12 19:12:07;;;;;;;5.10;2.73;;;;;;;;;;4935033;29;20458;-76
2022/06/12 19:14:35;;;;;;;9.43;3.80;;;;;;;;;;4945741;28;20458;-76
2022/06/12 19:17:02;;;;;;;5.70;3.20;;;;;;;;;;4953904;28;20466;-76
2022/06/12 19:19:31;;;;;;;6.77;3.00;;;;;;;;;;4955743;28;20445;-76
2022/06/12 19:21:58;;;;;;;3.77;2.60;;;;;;;;;;4944579;28;20525;-76
2022/06/12 19:24:25;;;;;;;6.70;3.27;;;;;;;;;;4939888;29;20445;-77
2022/06/12 19:26:53;;;;;;;7.23;3.17;;;;;;;;;;4949315;28;20489;-76
2022/06/12 19:29:21;;;;;;;5.60;2.80;;;;;;;;;;4952053;28;20655;-76
2022/06/12 19:31:48;;;;;;;5.10;2.73;;;;;;;;;;4957593;28;20445;-76
2022/06/12 19:34:16;;;;;;;3.97;3.00;;;;;;;;;;4960182;28;20445;-76
2022/06/12 19:36:45;;;;;;;4.10;2.40;;;;;;;;;;4959802;28;20469;-76
2022/06/12 19:39:13;;;;;;;8.73;2.77;;;;;;;;;;4960922;28;20452;-75
2022/06/12 19:41:45;;;;;;;8.73;3.10;;;;;;;;;;4960664;29;20908;-76
2022/06/12 19:44:12;;;;;;;4.13;2.73;;;;;;;;;;4950752;28;20506;-76
2022/06/12 19:46:40;;;;;;;4.37;3.23;;;;;;;;;;4946057;28;20490;-75
2022/06/12 19:49:07;;;;;;;6.70;2.97;;;;;;;;;;4941611;29;20454;-75
2022/06/12 19:51:34;;;;;;;5.30;2.20;;;;;;;;;;4940266;29;20456;-74
2022/06/12 19:54:03;;;;;;;5.47;2.27;;;;;;;;;;4940393;29;20446;-76
2022/06/12 19:56:34;;;;;;;5.47;2.40;;;;;;;;;;4940582;29;21010;-75
2022/06/12 19:59:01;;;;;;;5.83;2.33;;;;;;;;;;4940310;29;20438;-76
2022/06/12 20:01:28;;;;;;;4.13;2.67;;;;;;;;;;4959459;28;20574;-76
2022/06/12 20:07:25;;;;;;;5.73;2.77;;;;;;;;;;4961628;28;20449;-76
2022/06/12 20:09:26;;;;;;;6.17;2.33;;;;;;;;;;4945445;28;20808;-77
2022/06/12 20:11:53;;;;;;;3.20;2.27;;;;;;;;;;4939956;29;20446;-76
2022/06/12 20:14:20;;;;;;;3.77;2.20;;;;;;;;;;4940028;29;20784;-76
2022/06/12 20:16:48;;;;;;;5.60;2.60;;;;;;;;;;4940251;29;20474;-77
2022/06/12 20:19:15;;;;;;;6.00;2.20;;;;;;;;;;4939463;29;20523;-75
2022/06/12 20:21:43;;;;;;;3.47;2.23;;;;;;;;;;4941669;28;20428;-77
2022/06/12 20:24:10;;;;;;;6.33;2.83;;;;;;;;;;4959222;28;20520;-76
2022/06/12 20:26:39;;;;;;;4.33;2.60;;;;;;;;;;4945125;29;20842;-77
2022/06/12 20:29:06;;;;;;;4.57;2.70;;;;;;;;;;4945871;28;20408;-75
2022/06/12 20:31:33;;;;;;;4.40;2.47;;;;;;;;;;4939507;29;20508;-76
2022/06/12 20:34:00;;;;;;;4.40;2.43;;;;;;;;;;4939884;29;20503;-76
2022/06/12 20:36:28;;;;;;;3.80;2.10;;;;;;;;;;4940227;29;20473;-76
2022/06/12 20:38:57;;;;;;;4.30;2.00;;;;;;;;;;4940455;29;20492;-77
2022/06/12 20:41:24;;;;;;;4.03;2.30;;;;;;;;;;4943785;28;20430;-76
2022/06/12 20:43:53;;;;;;;3.97;2.57;;;;;;;;;;4956409;28;20459;-77
2022/06/12 20:46:21;;;;;;;3.50;2.10;;;;;;;;;;4957886;28;20852;-75
2022/06/12 20:48:48;;;;;;;4.70;2.30;;;;;;;;;;4945005;29;20445;-77
2022/06/12 20:51:16;;;;;;;2.83;2.10;;;;;;;;;;4941609;29;20434;-76
2022/06/12 20:53:43;;;;;;;5.57;2.30;;;;;;;;;;4937641;29;20450;-76
2022/06/12 20:56:10;;;;;;;3.20;2.00;;;;;;;;;;4936451;29;20445;-76
2022/06/12 20:58:38;;;;;;;3.70;2.30;;;;;;;;;;4936707;29;20424;-76
2022/06/12 21:01:06;;;;;;;4.73;2.20;;;;;;;;;;4955885;28;20426;-76
2022/06/12 21:03:33;;;;;;;4.87;2.10;;;;;;;;;;4955311;28;20514;-77
2022/06/12 21:06:01;;;;;;;6.50;2.83;;;;;;;;;;4957656;28;20466;-76
2022/06/12 21:08:28;;;;;;;4.70;2.00;;;;;;;;;;4957801;28;20418;-76
2022/06/12 21:10:55;;;;;;;2.83;2.03;;;;;;;;;;4949002;29;20420;-76
2022/06/12 21:13:22;;;;;;;5.30;2.27;;;;;;;;;;4942194;29;20421;-77
2022/06/12 21:15:50;;;;;;;4.40;2.10;;;;;;;;;;4949051;28;20447;-76
2022/06/12 21:18:20;;;;;;;3.37;2.00;;;;;;;;;;4955756;29;20933;-77
2022/06/12 21:20:47;;;;;;;3.50;1.77;;;;;;;;;;4955224;29;20961;-76
2022/06/12 21:23:14;;;;;;;3.97;2.20;;;;;;;;;;4954776;28;20448;-76
2022/06/12 21:25:43;;;;;;;4.43;2.00;;;;;;;;;;4955655;29;20450;-78
2022/06/12 21:28:11;;;;;;;3.67;2.47;;;;;;;;;;4956558;29;20446;-76
2022/06/12 21:30:39;;;;;;;4.70;2.20;;;;;;;;;;4956101;28;20450;-76
2022/06/12 21:33:07;;;;;;;5.93;2.30;;;;;;;;;;4950279;29;20877;-76
2022/06/12 21:35:35;;;;;;;3.20;2.10;;;;;;;;;;4941622;29;20431;-76
2022/06/12 21:38:03;;;;;;;2.70;1.80;;;;;;;;;;4938930;29;20451;-76
2022/06/12 21:40:30;;;;;;;3.97;2.10;;;;;;;;;;4936016;29;20520;-76
2022/06/12 21:42:58;;;;;;;4.73;1.90;;;;;;;;;;4935670;29;20429;-76
2022/06/12 21:45:25;;;;;;;3.70;1.83;;;;;;;;;;4936042;29;20558;-77
2022/06/12 21:47:53;;;;;;;3.10;1.93;;;;;;;;;;4935188;29;20467;-76
2022/06/12 21:50:22;;;;;;;2.80;1.90;;;;;;;;;;4948097;29;20456;-75
2022/06/12 21:55:32;;;;;;;4.03;2.47;;;;;;;;;;4943931;28;22075;-76
2022/06/12 21:57:59;;;;;;;5.90;2.50;;;;;;;;;;4941267;28;20787;-76
2022/06/12 22:00:27;;;;;;;4.87;1.90;;;;;;;;;;4945241;28;20429;-75
2022/06/12 22:02:55;;;;;;;4.40;2.37;;;;;;;;;;4953568;28;20426;-76
2022/06/12 22:05:23;;;;;;;2.80;2.10;;;;;;;;;;4953259;28;20452;-77
2022/06/12 22:07:51;;;;;;;5.40;2.30;;;;;;;;;;4954619;28;20499;-76
2022/06/12 22:10:19;;;;;;;3.93;2.83;;;;;;;;;;4954912;29;20422;-76
2022/06/12 22:12:46;;;;;;;4.20;2.10;;;;;;;;;;4955261;28;20874;-76
2022/06/12 22:15:15;;;;;;;6.50;2.20;;;;;;;;;;4955446;28;20442;-76
2022/06/12 22:17:42;;;;;;;4.13;1.93;;;;;;;;;;4954004;28;20469;-76
2022/06/12 22:20:10;;;;;;;3.43;2.37;;;;;;;;;;4940829;29;20435;-76
2022/06/12 22:22:37;;;;;;;4.83;2.10;;;;;;;;;;4940341;29;20442;-76
2022/06/12 22:25:07;;;;;;;4.17;2.00;;;;;;;;;;4951759;28;20425;-76
2022/06/12 22:27:34;;;;;;;4.80;2.00;;;;;;;;;;4954049;28;20464;-76
2022/06/12 22:30:01;;;;;;;2.37;1.93;;;;;;;;;;4954391;28;20452;-75
2022/06/12 22:32:28;;;;;;;3.33;1.87;;;;;;;;;;4954661;28;20451;-76
2022/06/12 22:34:56;;;;;;;3.23;2.33;;;;;;;;;;4954377;28;20467;-76
2022/06/12 22:37:24;;;;;;;5.90;2.63;;;;;;;;;;4956029;29;20447;-76
2022/06/12 22:39:51;;;;;;;3.33;2.07;;;;;;;;;;4955969;29;20465;-76
2022/06/12 22:42:19;;;;;;;2.80;1.77;;;;;;;;;;4940408;28;20451;-76
2022/06/12 22:44:47;;;;;;;3.10;2.57;;;;;;;;;;4940499;29;20439;-76
2022/06/12 22:47:14;;;;;;;4.37;2.27;;;;;;;;;;4934167;29;20575;-76
2022/06/12 22:49:41;;;;;;;3.87;2.20;;;;;;;;;;4934594;29;20843;-76
2022/06/12 22:52:08;;;;;;;5.40;2.20;;;;;;;;;;4934831;29;20455;-76
2022/06/12 22:54:36;;;;;;;6.00;2.23;;;;;;;;;;4949964;29;20446;-75
2022/06/12 22:57:04;;;;;;;5.90;2.20;;;;;;;;;;4937815;28;20478;-76
2022/06/12 22:59:32;;;;;;;3.90;2.30;;;;;;;;;;4955809;28;20935;-77
2022/06/12 23:01:59;;;;;;;3.23;2.00;;;;;;;;;;4955681;28;20449;-76
2022/06/12 23:04:26;;;;;;;3.63;1.83;;;;;;;;;;4942711;29;20438;-76
2022/06/12 23:06:54;;;;;;;4.03;2.40;;;;;;;;;;4939602;29;20482;-77
2022/06/12 23:09:21;;;;;;;3.53;2.10;;;;;;;;;;4950890;28;20448;-77
2022/06/12 23:11:48;;;;;;;5.67;2.30;;;;;;;;;;4952079;28;20441;-76
2022/06/12 23:14:15;;;;;;;3.17;2.20;;;;;;;;;;4953578;28;20454;-77
2022/06/12 23:16:44;;;;;;;5.47;2.20;;;;;;;;;;4953947;28;20440;-76
2022/06/12 23:19:11;;;;;;;3.60;2.43;;;;;;;;;;4953591;28;20452;-76
2022/06/12 23:21:38;;;;;;;6.93;2.37;;;;;;;;;;4936378;29;20450;-76
2022/06/12 23:24:06;;;;;;;4.47;2.20;;;;;;;;;;4948965;28;20416;-77
2022/06/12 23:26:33;;;;;;;4.73;2.30;;;;;;;;;;4945976;29;20497;-76
2022/06/12 23:29:06;;;;;;;3.90;2.40;;;;;;;;;;4940059;28;20914;-76
2022/06/12 23:31:34;;;;;;;3.43;2.60;;;;;;;;;;4935682;29;20498;-77
2022/06/12 23:34:03;;;;;;;4.10;2.90;;;;;;;;;;4934386;29;20450;-76
2022/06/12 23:36:30;;;;;;;3.87;2.50;;;;;;;;;;4934140;29;20482;-76
2022/06/12 23:38:57;;;;;;;2.73;2.27;;;;;;;;;;4934341;29;20486;-76
2022/06/12 23:41:24;;;;;;;8.00;2.30;;;;;;;;;;4934427;29;20443;-76
2022/06/12 23:43:52;;;;;;;4.30;2.27;;;;;;;;;;4951514;29;20456;-76
2022/06/12 23:46:21;;;;;;;4.80;2.73;;;;;;;;;;4955399;28;20822;-76
2022/06/12 23:48:49;;;;;;;6.10;3.20;;;;;;;;;;4947787;29;20454;-76
2022/06/12 23:51:18;;;;;;;5.97;2.93;;;;;;;;;;4939773;28;20442;-76
2022/06/12 23:53:45;;;;;;;4.97;2.97;;;;;;;;;;4935733;29;20781;-76
2022/06/12 23:56:13;;;;;;;6.20;3.00;;;;;;;;;;4933921;29;20466;-76
2022/06/12 23:58:41;;;;;;;5.07;2.43;;;;;;;;;;4932656;29;20455;-76
